sensor_id;sensor_type;location;lat;lon;timestamp;temperature;humidity
9446;DHT22;4761;49.490;10.908;2023-05-19T00:01:05;19.80;45.20
9446;DHT22;4761;49.490;10.908;2023-05-19T00:03:32;19.80;45.20
9446;DHT22;4761;49.490;10.908;2023-05-19T00:06:00;19.80;45.20
9446;DHT22;4761;49.490;10.908;2023-05-19T00:08:30;19.80;45.20
9446;DHT22;4761;49.490;10.908;2023-05-19T00:10:56;19.80;45.20
9446;DHT22;4761;49.490;10.908;2023-05-19T00:13:22;19.80;45.30
9446;DHT22;4761;49.490;10.908;2023-05-19T00:15:49;19.80;45.30
9446;DHT22;4761;49.490;10.908;2023-05-19T00:18:15;19.80;46.00
9446;DHT22;4761;49.490;10.908;2023-05-19T00:20:41;19.80;45.40
9446;DHT22;4761;49.490;10.908;2023-05-19T00:23:07;19.80;45.40
9446;DHT22;4761;49.490;10.908;2023-05-19T00:25:33;19.80;45.40
9446;DHT22;4761;49.490;10.908;2023-05-19T00:27:58;19.80;45.40
9446;DHT22;4761;49.490;10.908;2023-05-19T00:30:24;19.80;45.30
9446;DHT22;4761;49.490;10.908;2023-05-19T00:32:50;19.70;45.30
9446;DHT22;4761;49.490;10.908;2023-05-19T00:35:15;19.80;45.40
9446;DHT22;4761;49.490;10.908;2023-05-19T00:37:41;19.80;45.30
9446;DHT22;4761;49.490;10.908;2023-05-19T00:40:08;19.80;45.40
9446;DHT22;4761;49.490;10.908;2023-05-19T00:42:34;19.80;45.40
9446;DHT22;4761;49.490;10.908;2023-05-19T00:44:59;19.80;45.40
9446;DHT22;4761;49.490;10.908;2023-05-19T00:47:25;19.80;45.40
9446;DHT22;4761;49.490;10.908;2023-05-19T00:49:50;19.70;45.40
9446;DHT22;4761;49.490;10.908;2023-05-19T00:52:16;19.70;45.40
9446;DHT22;4761;49.490;10.908;2023-05-19T00:54:43;19.80;45.50
9446;DHT22;4761;49.490;10.908;2023-05-19T00:57:09;19.70;45.50
9446;DHT22;4761;49.490;10.908;2023-05-19T00:59:35;19.70;45.50
9446;DHT22;4761;49.490;10.908;2023-05-19T01:02:01;19.80;45.50
9446;DHT22;4761;49.490;10.908;2023-05-19T01:04:27;19.80;45.60
9446;DHT22;4761;49.490;10.908;2023-05-19T01:06:54;19.70;45.40
9446;DHT22;4761;49.490;10.908;2023-05-19T01:09:21;19.70;45.50
9446;DHT22;4761;49.490;10.908;2023-05-19T01:11:47;19.80;45.60
9446;DHT22;4761;49.490;10.908;2023-05-19T01:14:13;19.80;45.70
9446;DHT22;4761;49.490;10.908;2023-05-19T01:16:42;19.80;45.60
9446;DHT22;4761;49.490;10.908;2023-05-19T01:19:48;19.70;45.60
9446;DHT22;4761;49.490;10.908;2023-05-19T01:22:45;19.60;42.80
9446;DHT22;4761;49.490;10.908;2023-05-19T01:25:22;19.50;42.20
9446;DHT22;4761;49.490;10.908;2023-05-19T01:28:14;19.40;42.00
9446;DHT22;4761;49.490;10.908;2023-05-19T01:30:45;19.40;41.80
9446;DHT22;4761;49.490;10.908;2023-05-19T01:33:14;19.50;41.70
9446;DHT22;4761;49.490;10.908;2023-05-19T01:35:41;19.50;41.50
9446;DHT22;4761;49.490;10.908;2023-05-19T01:38:09;19.60;41.30
9446;DHT22;4761;49.490;10.908;2023-05-19T01:40:37;19.70;41.00
9446;DHT22;4761;49.490;10.908;2023-05-19T01:43:04;19.70;40.50
9446;DHT22;4761;49.490;10.908;2023-05-19T01:45:32;19.90;40.40
9446;DHT22;4761;49.490;10.908;2023-05-19T01:48:01;19.90;40.00
9446;DHT22;4761;49.490;10.908;2023-05-19T01:50:27;19.90;39.70
9446;DHT22;4761;49.490;10.908;2023-05-19T01:52:54;20.00;39.50
9446;DHT22;4761;49.490;10.908;2023-05-19T01:55:20;20.10;39.40
9446;DHT22;4761;49.490;10.908;2023-05-19T02:06:40;20.40;44.20
9446;DHT22;4761;49.490;10.908;2023-05-19T02:12:27;20.30;44.40
9446;DHT22;4761;49.490;10.908;2023-05-19T02:15:15;20.20;44.60
9446;DHT22;4761;49.490;10.908;2023-05-19T02:17:43;20.10;44.80
9446;DHT22;4761;49.490;10.908;2023-05-19T02:20:15;20.10;45.10
9446;DHT22;4761;49.490;10.908;2023-05-19T02:22:40;20.00;45.10
9446;DHT22;4761;49.490;10.908;2023-05-19T02:25:07;20.00;45.30
9446;DHT22;4761;49.490;10.908;2023-05-19T02:27:34;19.90;45.30
9446;DHT22;4761;49.490;10.908;2023-05-19T02:30:00;19.90;45.40
9446;DHT22;4761;49.490;10.908;2023-05-19T02:32:26;19.90;45.40
9446;DHT22;4761;49.490;10.908;2023-05-19T02:34:51;19.90;45.50
9446;DHT22;4761;49.490;10.908;2023-05-19T02:37:17;19.80;45.50
9446;DHT22;4761;49.490;10.908;2023-05-19T02:39:43;19.80;45.50
9446;DHT22;4761;49.490;10.908;2023-05-19T02:42:09;19.80;45.50
9446;DHT22;4761;49.490;10.908;2023-05-19T02:44:35;19.80;45.60
9446;DHT22;4761;49.490;10.908;2023-05-19T02:47:00;19.80;45.60
9446;DHT22;4761;49.490;10.908;2023-05-19T02:49:26;19.80;45.70
9446;DHT22;4761;49.490;10.908;2023-05-19T02:51:55;19.80;45.70
9446;DHT22;4761;49.490;10.908;2023-05-19T02:54:20;19.80;45.70
9446;DHT22;4761;49.490;10.908;2023-05-19T02:56:46;19.80;45.70
9446;DHT22;4761;49.490;10.908;2023-05-19T02:59:11;19.80;45.70
9446;DHT22;4761;49.490;10.908;2023-05-19T03:01:37;19.80;45.70
9446;DHT22;4761;49.490;10.908;2023-05-19T03:04:04;19.80;45.70
9446;DHT22;4761;49.490;10.908;2023-05-19T03:06:29;19.80;43.20
9446;DHT22;4761;49.490;10.908;2023-05-19T03:08:57;19.60;41.40
9446;DHT22;4761;49.490;10.908;2023-05-19T03:11:22;19.60;40.90
9446;DHT22;4761;49.490;10.908;2023-05-19T03:13:48;19.50;40.50
9446;DHT22;4761;49.490;10.908;2023-05-19T03:16:14;19.50;40.30
9446;DHT22;4761;49.490;10.908;2023-05-19T03:18:40;19.60;40.30
9446;DHT22;4761;49.490;10.908;2023-05-19T03:21:05;19.60;40.10
9446;DHT22;4761;49.490;10.908;2023-05-19T03:23:31;19.70;40.00
9446;DHT22;4761;49.490;10.908;2023-05-19T03:25:57;19.70;39.80
9446;DHT22;4761;49.490;10.908;2023-05-19T03:28:22;19.80;39.60
9446;DHT22;4761;49.490;10.908;2023-05-19T03:30:48;19.80;39.30
9446;DHT22;4761;49.490;10.908;2023-05-19T03:33:16;19.90;39.10
9446;DHT22;4761;49.490;10.908;2023-05-19T03:35:42;20.00;38.90
9446;DHT22;4761;49.490;10.908;2023-05-19T03:38:08;20.00;38.70
9446;DHT22;4761;49.490;10.908;2023-05-19T03:40:34;20.10;38.60
9446;DHT22;4761;49.490;10.908;2023-05-19T03:43:00;20.10;38.40
9446;DHT22;4761;49.490;10.908;2023-05-19T03:45:25;20.20;38.30
9446;DHT22;4761;49.490;10.908;2023-05-19T03:47:51;20.20;38.20
9446;DHT22;4761;49.490;10.908;2023-05-19T03:50:16;20.30;38.10
9446;DHT22;4761;49.490;10.908;2023-05-19T03:52:42;20.30;38.00
9446;DHT22;4761;49.490;10.908;2023-05-19T03:55:11;20.40;38.00
9446;DHT22;4761;49.490;10.908;2023-05-19T03:57:36;20.40;38.60
9446;DHT22;4761;49.490;10.908;2023-05-19T04:00:03;20.40;37.90
9446;DHT22;4761;49.490;10.908;2023-05-19T04:02:30;20.40;37.90
9446;DHT22;4761;49.490;10.908;2023-05-19T04:04:55;20.50;38.00
9446;DHT22;4761;49.490;10.908;2023-05-19T04:07:22;20.50;38.00
9446;DHT22;4761;49.490;10.908;2023-05-19T04:09:48;20.50;37.90
9446;DHT22;4761;49.490;10.908;2023-05-19T04:12:14;20.60;38.00
9446;DHT22;4761;49.490;10.908;2023-05-19T04:14:39;20.50;37.90
9446;DHT22;4761;49.490;10.908;2023-05-19T04:17:05;20.50;37.90
9446;DHT22;4761;49.490;10.908;2023-05-19T04:19:30;20.50;37.80
9446;DHT22;4761;49.490;10.908;2023-05-19T04:21:56;20.60;37.90
9446;DHT22;4761;49.490;10.908;2023-05-19T04:24:21;20.60;38.50
9446;DHT22;4761;49.490;10.908;2023-05-19T04:26:47;20.60;37.90
9446;DHT22;4761;49.490;10.908;2023-05-19T04:29:12;20.60;37.90
9446;DHT22;4761;49.490;10.908;2023-05-19T04:31:42;20.70;37.90
9446;DHT22;4761;49.490;10.908;2023-05-19T04:34:09;20.70;37.90
9446;DHT22;4761;49.490;10.908;2023-05-19T04:36:34;20.70;37.80
9446;DHT22;4761;49.490;10.908;2023-05-19T04:39:01;20.70;37.80
9446;DHT22;4761;49.490;10.908;2023-05-19T04:41:28;20.70;37.70
9446;DHT22;4761;49.490;10.908;2023-05-19T04:43:53;20.70;37.70
9446;DHT22;4761;49.490;10.908;2023-05-19T04:46:21;20.70;37.70
9446;DHT22;4761;49.490;10.908;2023-05-19T04:48:48;20.70;37.70
9446;DHT22;4761;49.490;10.908;2023-05-19T04:51:14;20.70;37.70
9446;DHT22;4761;49.490;10.908;2023-05-19T04:53:41;20.70;37.70
9446;DHT22;4761;49.490;10.908;2023-05-19T04:56:08;20.70;37.80
9446;DHT22;4761;49.490;10.908;2023-05-19T04:58:34;20.70;37.90
9446;DHT22;4761;49.490;10.908;2023-05-19T05:00:59;20.70;38.00
9446;DHT22;4761;49.490;10.908;2023-05-19T05:03:25;20.70;42.80
9446;DHT22;4761;49.490;10.908;2023-05-19T05:05:50;20.80;43.50
9446;DHT22;4761;49.490;10.908;2023-05-19T05:08:16;20.80;43.70
9446;DHT22;4761;49.490;10.908;2023-05-19T05:10:50;20.70;44.00
9446;DHT22;4761;49.490;10.908;2023-05-19T05:13:20;20.50;44.20
9446;DHT22;4761;49.490;10.908;2023-05-19T05:15:46;20.50;44.50
9446;DHT22;4761;49.490;10.908;2023-05-19T05:18:13;20.40;44.80
9446;DHT22;4761;49.490;10.908;2023-05-19T05:20:42;20.30;45.00
9446;DHT22;4761;49.490;10.908;2023-05-19T05:23:09;20.20;45.20
9446;DHT22;4761;49.490;10.908;2023-05-19T05:25:35;20.20;45.40
9446;DHT22;4761;49.490;10.908;2023-05-19T05:28:01;20.10;45.40
9446;DHT22;4761;49.490;10.908;2023-05-19T05:30:29;20.10;45.50
9446;DHT22;4761;49.490;10.908;2023-05-19T05:32:55;20.10;45.70
9446;DHT22;4761;49.490;10.908;2023-05-19T05:35:22;20.00;45.70
9446;DHT22;4761;49.490;10.908;2023-05-19T05:37:48;20.00;45.70
9446;DHT22;4761;49.490;10.908;2023-05-19T05:40:14;20.00;45.80
9446;DHT22;4761;49.490;10.908;2023-05-19T05:42:40;20.00;45.90
9446;DHT22;4761;49.490;10.908;2023-05-19T05:45:06;19.90;45.80
9446;DHT22;4761;49.490;10.908;2023-05-19T05:47:32;20.00;46.00
9446;DHT22;4761;49.490;10.908;2023-05-19T05:49:58;19.90;45.90
9446;DHT22;4761;49.490;10.908;2023-05-19T05:52:28;19.90;46.00
9446;DHT22;4761;49.490;10.908;2023-05-19T05:54:55;19.90;46.00
9446;DHT22;4761;49.490;10.908;2023-05-19T05:57:21;19.90;46.00
9446;DHT22;4761;49.490;10.908;2023-05-19T05:59:46;19.90;46.10
9446;DHT22;4761;49.490;10.908;2023-05-19T06:02:12;19.90;46.10
9446;DHT22;4761;49.490;10.908;2023-05-19T06:04:38;19.90;46.10
9446;DHT22;4761;49.490;10.908;2023-05-19T06:07:03;19.80;43.30
9446;DHT22;4761;49.490;10.908;2023-05-19T06:09:29;19.70;42.50
9446;DHT22;4761;49.490;10.908;2023-05-19T06:11:56;19.70;42.20
9446;DHT22;4761;49.490;10.908;2023-05-19T06:14:22;19.70;42.00
9446;DHT22;4761;49.490;10.908;2023-05-19T06:16:47;19.70;41.80
9446;DHT22;4761;49.490;10.908;2023-05-19T06:19:13;19.80;41.50
9446;DHT22;4761;49.490;10.908;2023-05-19T06:21:39;19.80;41.40
9446;DHT22;4761;49.490;10.908;2023-05-19T06:24:07;19.80;41.20
9446;DHT22;4761;49.490;10.908;2023-05-19T06:26:32;19.90;41.20
9446;DHT22;4761;49.490;10.908;2023-05-19T06:28:58;19.90;41.00
9446;DHT22;4761;49.490;10.908;2023-05-19T06:31:23;20.00;40.90
9446;DHT22;4761;49.490;10.908;2023-05-19T06:33:51;20.10;40.80
9446;DHT22;4761;49.490;10.908;2023-05-19T06:36:16;20.10;40.70
9446;DHT22;4761;49.490;10.908;2023-05-19T06:38:42;20.20;40.60
9446;DHT22;4761;49.490;10.908;2023-05-19T06:41:07;20.20;41.20
9446;DHT22;4761;49.490;10.908;2023-05-19T06:43:33;20.20;40.50
9446;DHT22;4761;49.490;10.908;2023-05-19T06:45:58;20.30;40.40
9446;DHT22;4761;49.490;10.908;2023-05-19T06:48:24;20.30;40.30
9446;DHT22;4761;49.490;10.908;2023-05-19T06:50:49;20.40;40.30
9446;DHT22;4761;49.490;10.908;2023-05-19T06:53:17;20.40;40.20
9446;DHT22;4761;49.490;10.908;2023-05-19T06:55:43;20.40;40.20
9446;DHT22;4761;49.490;10.908;2023-05-19T06:58:08;20.40;40.20
9446;DHT22;4761;49.490;10.908;2023-05-19T07:00:34;20.50;40.20
9446;DHT22;4761;49.490;10.908;2023-05-19T07:03:00;20.50;40.20
9446;DHT22;4761;49.490;10.908;2023-05-19T07:05:25;20.50;40.10
9446;DHT22;4761;49.490;10.908;2023-05-19T07:07:51;20.60;40.20
9446;DHT22;4761;49.490;10.908;2023-05-19T07:10:16;20.60;40.10
9446;DHT22;4761;49.490;10.908;2023-05-19T07:12:42;20.50;39.90
9446;DHT22;4761;49.490;10.908;2023-05-19T07:15:08;20.60;40.00
9446;DHT22;4761;49.490;10.908;2023-05-19T07:17:34;20.60;39.90
9446;DHT22;4761;49.490;10.908;2023-05-19T07:19:59;20.60;39.90
9446;DHT22;4761;49.490;10.908;2023-05-19T07:22:26;20.60;39.80
9446;DHT22;4761;49.490;10.908;2023-05-19T07:24:51;20.70;39.90
9446;DHT22;4761;49.490;10.908;2023-05-19T07:27:17;20.60;39.80
9446;DHT22;4761;49.490;10.908;2023-05-19T07:29:42;20.60;39.90
9446;DHT22;4761;49.490;10.908;2023-05-19T07:32:08;20.60;40.00
9446;DHT22;4761;49.490;10.908;2023-05-19T07:34:33;20.70;40.00
9446;DHT22;4761;49.490;10.908;2023-05-19T07:36:59;20.60;39.70
9446;DHT22;4761;49.490;10.908;2023-05-19T07:39:24;20.60;39.70
9446;DHT22;4761;49.490;10.908;2023-05-19T07:41:54;20.70;39.60
9446;DHT22;4761;49.490;10.908;2023-05-19T07:44:20;20.70;39.60
9446;DHT22;4761;49.490;10.908;2023-05-19T07:46:45;20.70;39.50
9446;DHT22;4761;49.490;10.908;2023-05-19T07:49:11;20.70;39.50
9446;DHT22;4761;49.490;10.908;2023-05-19T07:51:36;20.70;39.50
9446;DHT22;4761;49.490;10.908;2023-05-19T07:54:02;20.60;39.50
9446;DHT22;4761;49.490;10.908;2023-05-19T07:56:27;20.60;39.50
9446;DHT22;4761;49.490;10.908;2023-05-19T07:58:53;20.60;39.60
9446;DHT22;4761;49.490;10.908;2023-05-19T08:01:19;20.70;39.60
9446;DHT22;4761;49.490;10.908;2023-05-19T08:03:44;20.80;44.20
9446;DHT22;4761;49.490;10.908;2023-05-19T08:06:10;20.90;44.50
9446;DHT22;4761;49.490;10.908;2023-05-19T08:08:36;20.80;44.50
9446;DHT22;4761;49.490;10.908;2023-05-19T08:11:02;20.70;44.80
9446;DHT22;4761;49.490;10.908;2023-05-19T08:13:28;20.60;45.00
9446;DHT22;4761;49.490;10.908;2023-05-19T08:15:54;20.50;45.20
9446;DHT22;4761;49.490;10.908;2023-05-19T08:18:24;20.50;45.40
9446;DHT22;4761;49.490;10.908;2023-05-19T08:20:49;20.40;45.60
9446;DHT22;4761;49.490;10.908;2023-05-19T08:23:15;20.40;45.80
9446;DHT22;4761;49.490;10.908;2023-05-19T08:25:42;20.40;45.90
9446;DHT22;4761;49.490;10.908;2023-05-19T08:28:07;20.30;45.90
9446;DHT22;4761;49.490;10.908;2023-05-19T08:30:33;20.30;46.00
9446;DHT22;4761;49.490;10.908;2023-05-19T08:32:58;20.30;46.30
9446;DHT22;4761;49.490;10.908;2023-05-19T08:35:24;20.20;46.00
9446;DHT22;4761;49.490;10.908;2023-05-19T08:37:50;20.20;46.00
9446;DHT22;4761;49.490;10.908;2023-05-19T08:40:16;20.20;45.90
9446;DHT22;4761;49.490;10.908;2023-05-19T08:42:43;20.20;46.00
9446;DHT22;4761;49.490;10.908;2023-05-19T08:45:09;20.20;45.90
9446;DHT22;4761;49.490;10.908;2023-05-19T08:47:35;20.20;45.90
9446;DHT22;4761;49.490;10.908;2023-05-19T08:50:05;20.20;45.80
9446;DHT22;4761;49.490;10.908;2023-05-19T08:55:53;20.20;46.00
9446;DHT22;4761;49.490;10.908;2023-05-19T08:58:23;20.20;45.80
9446;DHT22;4761;49.490;10.908;2023-05-19T09:00:49;20.20;45.80
9446;DHT22;4761;49.490;10.908;2023-05-19T09:03:15;20.20;45.70
9446;DHT22;4761;49.490;10.908;2023-05-19T09:05:42;20.20;45.70
9446;DHT22;4761;49.490;10.908;2023-05-19T09:08:08;20.30;45.80
9446;DHT22;4761;49.490;10.908;2023-05-19T09:10:34;20.20;45.60
9446;DHT22;4761;49.490;10.908;2023-05-19T09:12:59;20.20;45.60
9446;DHT22;4761;49.490;10.908;2023-05-19T09:15:26;20.30;45.60
9446;DHT22;4761;49.490;10.908;2023-05-19T09:18:11;20.30;45.70
9446;DHT22;4761;49.490;10.908;2023-05-19T09:20:44;20.30;45.60
9446;DHT22;4761;49.490;10.908;2023-05-19T09:23:12;20.30;45.50
9446;DHT22;4761;49.490;10.908;2023-05-19T09:25:49;20.30;45.60
9446;DHT22;4761;49.490;10.908;2023-05-19T09:31:04;20.40;45.90
9446;DHT22;4761;49.490;10.908;2023-05-19T09:33:35;20.40;45.60
9446;DHT22;4761;49.490;10.908;2023-05-19T09:36:02;20.40;45.50
9446;DHT22;4761;49.490;10.908;2023-05-19T09:38:29;20.40;45.40
9446;DHT22;4761;49.490;10.908;2023-05-19T09:40:56;20.40;45.30
9446;DHT22;4761;49.490;10.908;2023-05-19T09:43:22;20.40;45.40
9446;DHT22;4761;49.490;10.908;2023-05-19T09:45:53;20.40;45.40
9446;DHT22;4761;49.490;10.908;2023-05-19T09:48:19;20.40;45.30
9446;DHT22;4761;49.490;10.908;2023-05-19T09:50:44;20.40;45.30
9446;DHT22;4761;49.490;10.908;2023-05-19T09:53:13;20.40;45.30
9446;DHT22;4761;49.490;10.908;2023-05-19T09:55:39;20.40;45.20
9446;DHT22;4761;49.490;10.908;2023-05-19T09:58:07;20.40;45.20
9446;DHT22;4761;49.490;10.908;2023-05-19T10:00:33;20.40;45.40
9446;DHT22;4761;49.490;10.908;2023-05-19T10:02:59;20.40;45.20
9446;DHT22;4761;49.490;10.908;2023-05-19T10:05:26;20.40;45.20
9446;DHT22;4761;49.490;10.908;2023-05-19T10:07:53;20.40;45.20
9446;DHT22;4761;49.490;10.908;2023-05-19T10:10:20;20.40;45.20
9446;DHT22;4761;49.490;10.908;2023-05-19T10:12:47;20.40;45.20
9446;DHT22;4761;49.490;10.908;2023-05-19T10:15:14;20.30;45.00
9446;DHT22;4761;49.490;10.908;2023-05-19T10:17:42;20.30;45.20
9446;DHT22;4761;49.490;10.908;2023-05-19T10:20:13;20.40;45.40
9446;DHT22;4761;49.490;10.908;2023-05-19T10:22:43;20.40;45.20
9446;DHT22;4761;49.490;10.908;2023-05-19T10:25:10;20.30;45.20
9446;DHT22;4761;49.490;10.908;2023-05-19T10:27:41;20.40;45.10
9446;DHT22;4761;49.490;10.908;2023-05-19T10:30:16;20.40;45.10
9446;DHT22;4761;49.490;10.908;2023-05-19T10:32:45;20.40;45.20
9446;DHT22;4761;49.490;10.908;2023-05-19T10:41:06;20.40;45.20
9446;DHT22;4761;49.490;10.908;2023-05-19T10:44:02;20.40;45.10
9446;DHT22;4761;49.490;10.908;2023-05-19T10:46:32;20.40;45.20
9446;DHT22;4761;49.490;10.908;2023-05-19T10:48:58;20.40;45.20
9446;DHT22;4761;49.490;10.908;2023-05-19T10:51:30;20.40;45.20
9446;DHT22;4761;49.490;10.908;2023-05-19T10:53:56;20.40;45.20
9446;DHT22;4761;49.490;10.908;2023-05-19T10:56:32;20.40;45.20
9446;DHT22;4761;49.490;10.908;2023-05-19T10:59:01;20.40;45.20
9446;DHT22;4761;49.490;10.908;2023-05-19T11:01:31;20.40;45.20
9446;DHT22;4761;49.490;10.908;2023-05-19T11:04:11;20.40;44.50
9446;DHT22;4761;49.490;10.908;2023-05-19T11:06:39;20.30;43.40
9446;DHT22;4761;49.490;10.908;2023-05-19T11:09:13;20.20;42.80
9446;DHT22;4761;49.490;10.908;2023-05-19T11:11:50;20.20;42.30
9446;DHT22;4761;49.490;10.908;2023-05-19T11:14:18;20.20;42.00
9446;DHT22;4761;49.490;10.908;2023-05-19T11:16:48;20.20;41.60
9446;DHT22;4761;49.490;10.908;2023-05-19T11:19:33;20.30;41.30
9446;DHT22;4761;49.490;10.908;2023-05-19T11:22:10;20.30;40.90
9446;DHT22;4761;49.490;10.908;2023-05-19T11:27:30;20.40;40.70
9446;DHT22;4761;49.490;10.908;2023-05-19T11:30:07;20.50;40.40
9446;DHT22;4761;49.490;10.908;2023-05-19T11:32:36;20.50;40.30
9446;DHT22;4761;49.490;10.908;2023-05-19T11:35:03;20.50;40.20
9446;DHT22;4761;49.490;10.908;2023-05-19T11:37:31;20.50;40.10
9446;DHT22;4761;49.490;10.908;2023-05-19T11:39:57;20.60;40.00
9446;DHT22;4761;49.490;10.908;2023-05-19T11:42:25;20.60;40.00
9446;DHT22;4761;49.490;10.908;2023-05-19T11:44:54;20.60;40.00
9446;DHT22;4761;49.490;10.908;2023-05-19T11:47:19;20.70;40.10
9446;DHT22;4761;49.490;10.908;2023-05-19T11:49:49;20.70;40.10
9446;DHT22;4761;49.490;10.908;2023-05-19T11:52:16;20.70;40.10
9446;DHT22;4761;49.490;10.908;2023-05-19T11:54:42;20.70;40.10
9446;DHT22;4761;49.490;10.908;2023-05-19T11:57:08;20.70;40.10
9446;DHT22;4761;49.490;10.908;2023-05-19T11:59:38;20.70;40.00
9446;DHT22;4761;49.490;10.908;2023-05-19T12:02:23;20.80;40.10
9446;DHT22;4761;49.490;10.908;2023-05-19T12:04:49;20.80;40.10
9446;DHT22;4761;49.490;10.908;2023-05-19T12:07:17;20.80;40.00
9446;DHT22;4761;49.490;10.908;2023-05-19T12:09:45;20.80;40.10
9446;DHT22;4761;49.490;10.908;2023-05-19T12:12:19;20.80;40.00
9446;DHT22;4761;49.490;10.908;2023-05-19T12:14:49;20.80;40.00
9446;DHT22;4761;49.490;10.908;2023-05-19T12:17:20;20.80;40.00
9446;DHT22;4761;49.490;10.908;2023-05-19T12:19:49;20.90;40.80
9446;DHT22;4761;49.490;10.908;2023-05-19T12:22:16;20.80;40.10
9446;DHT22;4761;49.490;10.908;2023-05-19T12:24:42;20.80;40.30
9446;DHT22;4761;49.490;10.908;2023-05-19T12:27:13;20.80;40.20
9446;DHT22;4761;49.490;10.908;2023-05-19T12:29:41;20.90;40.30
9446;DHT22;4761;49.490;10.908;2023-05-19T12:32:07;20.90;40.50
9446;DHT22;4761;49.490;10.908;2023-05-19T12:34:36;20.90;40.50
9446;DHT22;4761;49.490;10.908;2023-05-19T12:37:05;20.90;40.60
9446;DHT22;4761;49.490;10.908;2023-05-19T12:39:31;20.90;40.80
9446;DHT22;4761;49.490;10.908;2023-05-19T12:42:06;20.90;40.70
9446;DHT22;4761;49.490;10.908;2023-05-19T12:44:36;20.90;40.80
9446;DHT22;4761;49.490;10.908;2023-05-19T12:47:06;20.90;41.10
9446;DHT22;4761;49.490;10.908;2023-05-19T12:49:32;20.90;41.20
9446;DHT22;4761;49.490;10.908;2023-05-19T12:52:00;20.80;41.10
9446;DHT22;4761;49.490;10.908;2023-05-19T12:54:31;20.80;41.40
9446;DHT22;4761;49.490;10.908;2023-05-19T12:56:57;20.80;41.40
9446;DHT22;4761;49.490;10.908;2023-05-19T12:59:23;20.80;41.30
9446;DHT22;4761;49.490;10.908;2023-05-19T13:01:56;20.80;41.10
9446;DHT22;4761;49.490;10.908;2023-05-19T13:04:22;20.90;40.90
9446;DHT22;4761;49.490;10.908;2023-05-19T13:06:48;20.80;41.60
9446;DHT22;4761;49.490;10.908;2023-05-19T13:09:14;20.90;41.70
9446;DHT22;4761;49.490;10.908;2023-05-19T13:11:42;20.90;41.00
9446;DHT22;4761;49.490;10.908;2023-05-19T13:14:08;20.90;40.90
9446;DHT22;4761;49.490;10.908;2023-05-19T13:16:34;20.90;41.00
9446;DHT22;4761;49.490;10.908;2023-05-19T13:19:00;20.90;41.00
9446;DHT22;4761;49.490;10.908;2023-05-19T13:21:26;21.00;41.10
9446;DHT22;4761;49.490;10.908;2023-05-19T13:23:51;21.00;41.10
9446;DHT22;4761;49.490;10.908;2023-05-19T13:26:17;21.00;41.00
9446;DHT22;4761;49.490;10.908;2023-05-19T13:28:43;21.10;41.10
9446;DHT22;4761;49.490;10.908;2023-05-19T13:31:08;21.10;41.00
9446;DHT22;4761;49.490;10.908;2023-05-19T13:33:34;21.20;40.90
9446;DHT22;4761;49.490;10.908;2023-05-19T13:36:00;21.30;40.80
9446;DHT22;4761;49.490;10.908;2023-05-19T13:38:26;21.30;40.60
9446;DHT22;4761;49.490;10.908;2023-05-19T13:40:52;21.30;40.30
9446;DHT22;4761;49.490;10.908;2023-05-19T13:43:17;21.30;40.30
9446;DHT22;4761;49.490;10.908;2023-05-19T13:45:43;21.40;40.30
9446;DHT22;4761;49.490;10.908;2023-05-19T13:48:08;21.40;40.20
9446;DHT22;4761;49.490;10.908;2023-05-19T13:50:35;21.40;40.00
9446;DHT22;4761;49.490;10.908;2023-05-19T13:53:01;21.40;40.10
9446;DHT22;4761;49.490;10.908;2023-05-19T13:55:27;21.40;40.40
9446;DHT22;4761;49.490;10.908;2023-05-19T13:57:53;21.40;39.90
9446;DHT22;4761;49.490;10.908;2023-05-19T14:00:19;21.30;39.70
9446;DHT22;4761;49.490;10.908;2023-05-19T14:02:45;21.30;43.00
9446;DHT22;4761;49.490;10.908;2023-05-19T14:05:11;21.60;51.10
9446;DHT22;4761;49.490;10.908;2023-05-19T14:07:36;21.50;51.60
9446;DHT22;4761;49.490;10.908;2023-05-19T14:10:03;21.40;51.80
9446;DHT22;4761;49.490;10.908;2023-05-19T14:12:29;21.40;52.30
9446;DHT22;4761;49.490;10.908;2023-05-19T14:14:55;21.30;52.50
9446;DHT22;4761;49.490;10.908;2023-05-19T14:17:20;21.20;52.70
9446;DHT22;4761;49.490;10.908;2023-05-19T14:19:46;21.20;52.90
9446;DHT22;4761;49.490;10.908;2023-05-19T14:22:12;21.10;52.90
9446;DHT22;4761;49.490;10.908;2023-05-19T14:24:37;21.10;52.90
9446;DHT22;4761;49.490;10.908;2023-05-19T14:27:03;21.10;52.90
9446;DHT22;4761;49.490;10.908;2023-05-19T14:29:28;21.10;53.00
9446;DHT22;4761;49.490;10.908;2023-05-19T14:31:55;21.00;52.90
9446;DHT22;4761;49.490;10.908;2023-05-19T14:34:21;21.10;53.20
9446;DHT22;4761;49.490;10.908;2023-05-19T14:36:47;21.00;53.20
9446;DHT22;4761;49.490;10.908;2023-05-19T14:39:13;21.00;53.40
9446;DHT22;4761;49.490;10.908;2023-05-19T14:41:38;21.00;53.50
9446;DHT22;4761;49.490;10.908;2023-05-19T14:44:04;21.00;53.50
9446;DHT22;4761;49.490;10.908;2023-05-19T14:46:30;20.90;53.60
9446;DHT22;4761;49.490;10.908;2023-05-19T14:48:55;20.90;53.70
9446;DHT22;4761;49.490;10.908;2023-05-19T14:51:21;20.90;53.80
9446;DHT22;4761;49.490;10.908;2023-05-19T14:53:46;20.90;53.90
9446;DHT22;4761;49.490;10.908;2023-05-19T14:56:14;20.90;54.00
9446;DHT22;4761;49.490;10.908;2023-05-19T14:58:40;20.90;54.00
9446;DHT22;4761;49.490;10.908;2023-05-19T15:01:05;20.90;54.10
9446;DHT22;4761;49.490;10.908;2023-05-19T15:03:30;20.90;54.10
9446;DHT22;4761;49.490;10.908;2023-05-19T15:05:56;20.90;54.00
9446;DHT22;4761;49.490;10.908;2023-05-19T15:08:22;20.80;54.10
9446;DHT22;4761;49.490;10.908;2023-05-19T15:10:48;20.80;54.20
9446;DHT22;4761;49.490;10.908;2023-05-19T15:13:14;20.80;54.20
9446;DHT22;4761;49.490;10.908;2023-05-19T15:15:40;20.80;54.30
9446;DHT22;4761;49.490;10.908;2023-05-19T15:18:05;20.80;54.30
9446;DHT22;4761;49.490;10.908;2023-05-19T15:20:31;20.80;54.40
9446;DHT22;4761;49.490;10.908;2023-05-19T15:22:56;20.80;54.50
9446;DHT22;4761;49.490;10.908;2023-05-19T15:25:22;20.80;54.50
9446;DHT22;4761;49.490;10.908;2023-05-19T15:27:47;20.80;54.50
9446;DHT22;4761;49.490;10.908;2023-05-19T15:30:13;20.80;54.50
9446;DHT22;4761;49.490;10.908;2023-05-19T15:32:38;20.70;54.50
9446;DHT22;4761;49.490;10.908;2023-05-19T15:35:04;20.70;54.50
9446;DHT22;4761;49.490;10.908;2023-05-19T15:37:30;20.80;54.60
9446;DHT22;4761;49.490;10.908;2023-05-19T15:39:56;20.70;54.50
9446;DHT22;4761;49.490;10.908;2023-05-19T15:42:21;20.70;54.40
9446;DHT22;4761;49.490;10.908;2023-05-19T15:44:47;20.70;54.30
9446;DHT22;4761;49.490;10.908;2023-05-19T15:47:12;20.80;54.30
9446;DHT22;4761;49.490;10.908;2023-05-19T15:49:38;20.70;54.10
9446;DHT22;4761;49.490;10.908;2023-05-19T15:52:03;20.80;54.10
9446;DHT22;4761;49.490;10.908;2023-05-19T15:54:29;20.70;54.00
9446;DHT22;4761;49.490;10.908;2023-05-19T15:56:54;20.70;54.00
9446;DHT22;4761;49.490;10.908;2023-05-19T15:59:20;20.70;54.00
9446;DHT22;4761;49.490;10.908;2023-05-19T16:01:46;20.70;54.00
9446;DHT22;4761;49.490;10.908;2023-05-19T16:04:11;20.70;54.00
9446;DHT22;4761;49.490;10.908;2023-05-19T16:06:37;20.70;53.90
9446;DHT22;4761;49.490;10.908;2023-05-19T16:09:02;20.70;53.70
9446;DHT22;4761;49.490;10.908;2023-05-19T16:11:28;20.70;53.80